createdAt,value
2023-02-03T00:00:41.401Z,0.55
2023-02-03T00:03:08.213Z,0.20
2023-02-03T00:05:35.042Z,0.20
2023-02-03T00:08:03.358Z,0.40
2023-02-03T00:10:30.127Z,0.40
2023-02-03T00:12:57.782Z,0.40
2023-02-03T00:15:24.541Z,0.85
2023-02-03T00:17:51.321Z,0.30
2023-02-03T00:20:18.182Z,0.30
2023-02-03T00:22:44.953Z,0.40
2023-02-03T00:25:11.879Z,0.50
2023-02-03T00:27:38.720Z,0.30
2023-02-03T00:30:06.791Z,1.23
2023-02-03T00:32:33.660Z,0.28
2023-02-03T00:35:00.467Z,0.20
2023-02-03T00:37:27.625Z,0.57
2023-02-03T00:39:54.472Z,0.38
2023-02-03T00:42:21.311Z,0.20
2023-02-03T00:44:48.176Z,0.50
2023-02-03T00:47:14.953Z,0.50
2023-02-03T00:49:41.828Z,0.30
2023-02-03T00:52:08.596Z,0.25
2023-02-03T00:54:35.398Z,0.30
2023-02-03T00:57:02.915Z,0.45
2023-02-03T00:59:29.785Z,0.57
2023-02-03T01:01:56.555Z,0.80
2023-02-03T01:04:24.277Z,0.30
2023-02-03T01:06:51.236Z,0.30
2023-02-03T01:09:19.214Z,0.70
2023-02-03T01:11:46.164Z,0.50
2023-02-03T01:14:14.506Z,0.35
2023-02-03T01:16:41.317Z,0.47
2023-02-03T01:19:08.247Z,0.20
2023-02-03T01:21:36.323Z,0.25
2023-02-03T01:24:03.084Z,0.40
2023-02-03T01:26:31.082Z,0.38
2023-02-03T01:28:58.853Z,0.20
2023-02-03T01:31:37.122Z,0.28
2023-02-03T01:34:07.259Z,0.40
2023-02-03T01:36:34.713Z,0.38
2023-02-03T01:39:02.900Z,0.30
2023-02-03T01:41:31.458Z,1.02
2023-02-03T01:43:59.107Z,0.28
2023-02-03T01:46:35.194Z,0.32
2023-02-03T01:49:11.943Z,0.55
2023-02-03T01:51:40.183Z,0.25
2023-02-03T01:54:13.807Z,0.45
2023-02-03T01:59:07.807Z,0.30
2023-02-03T02:01:34.623Z,0.43
2023-02-03T02:04:02.731Z,0.20
2023-02-03T02:06:29.499Z,2.15
2023-02-03T02:08:56.506Z,0.65
2023-02-03T02:11:23.374Z,1.95
2023-02-03T02:13:51.043Z,0.47
2023-02-03T02:16:33.208Z,0.90
2023-02-03T02:19:27.759Z,0.80
2023-02-03T02:22:32.258Z,0.45
2023-02-03T02:28:13.796Z,1.10
2023-02-03T02:31:19.303Z,0.60
2023-02-03T02:34:03.628Z,0.40
2023-02-03T02:36:41.219Z,0.20
2023-02-03T02:39:13.957Z,0.20
2023-02-03T02:42:05.290Z,0.20
2023-02-03T02:44:39.369Z,0.10
2023-02-03T02:47:11.216Z,0.20
2023-02-03T02:50:04.823Z,0.30
2023-02-03T02:52:32.685Z,0.30
2023-02-03T02:55:03.433Z,0.20
2023-02-03T02:57:30.263Z,0.20
2023-02-03T02:59:57.052Z,0.20
2023-02-03T03:02:33.660Z,0.28
2023-02-03T03:05:02.923Z,0.30
2023-02-03T03:07:29.918Z,0.40
2023-02-03T03:10:05.421Z,0.20
2023-02-03T03:12:34.849Z,0.40
2023-02-03T03:15:06.739Z,0.20
2023-02-03T03:17:41.244Z,0.50
2023-02-03T03:20:14.129Z,0.70
2023-02-03T03:22:45.212Z,0.75
2023-02-03T03:25:19.601Z,0.93
2023-02-03T03:27:52.045Z,0.20
2023-02-03T03:30:22.120Z,0.20
2023-02-03T03:32:49.381Z,0.30
2023-02-03T03:35:16.098Z,0.22
2023-02-03T03:38:12.031Z,0.20
2023-02-03T03:40:41.565Z,0.20
2023-02-03T03:43:15.665Z,0.30
2023-02-03T03:45:58.490Z,0.40
2023-02-03T03:48:37.098Z,0.30
2023-02-03T03:51:06.882Z,0.43
2023-02-03T03:53:34.673Z,0.17
2023-02-03T03:56:01.675Z,0.10
2023-02-03T03:58:30.272Z,0.30
2023-02-03T04:00:59.380Z,0.13
2023-02-03T04:03:30.461Z,0.20
2023-02-03T04:05:57.266Z,0.35
2023-02-03T04:08:24.020Z,0.30
2023-02-03T04:10:50.792Z,0.43
2023-02-03T04:13:20.118Z,0.60
2023-02-03T04:15:47.042Z,0.30
2023-02-03T04:18:14.533Z,0.30
2023-02-03T04:20:41.377Z,0.20
2023-02-03T04:23:08.638Z,0.25
2023-02-03T04:25:35.404Z,0.20
2023-02-03T04:28:02.203Z,0.20
2023-02-03T04:30:29.315Z,0.20
2023-02-03T04:32:56.293Z,0.32
2023-02-03T04:35:23.109Z,0.50
2023-02-03T04:37:49.837Z,0.40
2023-02-03T04:40:16.897Z,0.43
2023-02-03T04:42:43.647Z,0.30
2023-02-03T04:45:11.480Z,0.20
2023-02-03T04:47:39.308Z,0.15
2023-02-03T04:50:06.464Z,0.20
2023-02-03T04:52:33.226Z,0.90
2023-02-03T04:54:59.988Z,0.20
2023-02-03T04:57:26.746Z,0.40
2023-02-03T04:59:53.523Z,0.20
2023-02-03T05:02:20.313Z,0.25
2023-02-03T05:04:47.077Z,0.35
2023-02-03T05:07:13.820Z,0.88
2023-02-03T05:09:40.592Z,0.20
2023-02-03T05:12:07.435Z,0.30
2023-02-03T05:14:34.172Z,0.30
2023-02-03T05:17:01.074Z,0.43
2023-02-03T05:19:27.825Z,0.40
2023-02-03T05:21:54.576Z,0.60
2023-02-03T05:24:21.358Z,0.30
2023-02-03T05:26:48.094Z,0.30
2023-02-03T05:29:14.835Z,0.32
2023-02-03T05:31:41.697Z,0.40
2023-02-03T05:34:08.598Z,0.40
2023-02-03T05:36:35.347Z,0.60
2023-02-03T05:39:02.214Z,0.40
2023-02-03T05:41:58.677Z,0.70
2023-02-03T05:44:26.782Z,0.40
2023-02-03T05:46:54.699Z,0.77
2023-02-03T05:49:23.168Z,0.82
2023-02-03T05:51:53.655Z,0.47
2023-02-03T05:54:20.496Z,0.50
2023-02-03T05:56:47.297Z,0.40
2023-02-03T05:59:14.094Z,0.30
2023-02-03T06:01:40.891Z,0.45
2023-02-03T06:04:07.756Z,0.50
2023-02-03T06:06:34.593Z,0.30
2023-02-03T06:09:01.905Z,0.40
2023-02-03T06:11:28.884Z,0.50
2023-02-03T06:13:56.367Z,0.40
2023-02-03T06:16:24.864Z,0.47
2023-02-03T06:18:52.684Z,0.75
2023-02-03T06:21:20.192Z,0.80
2023-02-03T06:23:47.049Z,0.40
2023-02-03T06:26:14.080Z,0.35
2023-02-03T06:28:40.915Z,0.60
2023-02-03T06:31:07.737Z,0.55
2023-02-03T06:33:34.605Z,0.75
2023-02-03T06:36:01.437Z,0.75
2023-02-03T06:38:28.179Z,0.50
2023-02-03T06:40:54.924Z,0.70
2023-02-03T06:43:22.213Z,0.22
2023-02-03T06:45:49.046Z,0.30
2023-02-03T06:48:15.914Z,0.43
2023-02-03T06:50:42.759Z,0.30
2023-02-03T06:53:09.690Z,0.88
2023-02-03T06:55:36.425Z,0.35
2023-02-03T06:58:03.211Z,1.20
2023-02-03T07:00:30.295Z,0.55
2023-02-03T07:02:57.767Z,0.30
2023-02-03T07:05:24.720Z,0.55
2023-02-03T07:07:51.665Z,0.30
2023-02-03T07:10:18.559Z,0.30
2023-02-03T07:12:45.463Z,0.60
2023-02-03T07:15:12.706Z,0.30
2023-02-03T07:17:39.501Z,0.57
2023-02-03T07:20:07.026Z,0.75
2023-02-03T07:22:33.855Z,0.20
2023-02-03T07:25:00.653Z,0.20
2023-02-03T07:27:28.159Z,0.38
2023-02-03T07:29:54.910Z,0.30
2023-02-03T07:32:21.645Z,0.32
2023-02-03T07:34:48.381Z,0.50
2023-02-03T07:37:15.158Z,0.60
2023-02-03T07:39:42.363Z,0.40
2023-02-03T07:42:09.112Z,0.20
2023-02-03T07:44:39.155Z,0.30
2023-02-03T07:47:05.943Z,0.90
2023-02-03T07:49:34.252Z,1.20
2023-02-03T07:52:00.989Z,0.88
2023-02-03T07:54:27.793Z,0.40
2023-02-03T07:56:54.892Z,0.40
2023-02-03T07:59:21.827Z,0.50
2023-02-03T08:01:48.759Z,0.57
2023-02-03T08:04:16.576Z,0.50
2023-02-03T08:06:44.886Z,0.50
2023-02-03T08:09:12.680Z,0.60
2023-02-03T08:11:39.750Z,0.75
2023-02-03T08:14:06.995Z,1.52
2023-02-03T08:16:33.813Z,0.50
2023-02-03T08:19:00.795Z,0.63
2023-02-03T08:21:27.589Z,0.52
2023-02-03T08:23:54.317Z,1.17
2023-02-03T08:26:21.340Z,5.18
2023-02-03T08:28:51.111Z,0.93
2023-02-03T08:31:18.088Z,0.47
2023-02-03T08:33:44.926Z,0.35
2023-02-03T08:36:11.881Z,2.38
2023-02-03T08:38:39.652Z,0.98
2023-02-03T08:41:14.077Z,3.47
2023-02-03T08:43:40.943Z,0.80
2023-02-03T08:46:08.970Z,0.90
2023-02-03T08:48:35.870Z,0.60
2023-02-03T08:51:02.717Z,1.45
2023-02-03T08:53:29.571Z,0.70
2023-02-03T08:55:56.454Z,0.70
2023-02-03T08:58:23.250Z,0.57
2023-02-03T09:00:53.335Z,0.75
2023-02-03T09:03:20.306Z,0.50
2023-02-03T09:05:47.229Z,0.98
2023-02-03T09:08:14.082Z,0.73
2023-02-03T09:10:41.079Z,0.80
2023-02-03T09:13:07.842Z,0.60
2023-02-03T09:15:34.722Z,0.50
2023-02-03T09:18:01.554Z,1.00
2023-02-03T09:20:29.308Z,0.60
2023-02-03T09:22:59.492Z,1.10
2023-02-03T09:25:26.375Z,2.58
2023-02-03T09:27:53.250Z,2.58
2023-02-03T09:30:20.164Z,1.00
2023-02-03T09:32:54.095Z,1.15
2023-02-03T09:35:21.448Z,0.73
2023-02-03T09:37:48.889Z,0.63
2023-02-03T09:40:31.052Z,1.98
2023-02-03T09:43:32.311Z,3.25
2023-02-03T09:46:25.864Z,1.92
2023-02-03T09:49:07.306Z,0.60
2023-02-03T09:51:40.703Z,1.00
2023-02-03T09:54:08.780Z,0.70
2023-02-03T09:56:36.316Z,0.60
2023-02-03T09:59:03.375Z,7.65
2023-02-03T10:01:52.128Z,0.82
2023-02-03T10:04:27.915Z,1.10
2023-02-03T10:07:03.955Z,1.20
2023-02-03T10:09:37.710Z,0.63
2023-02-03T10:12:33.442Z,0.68
2023-02-03T10:15:19.674Z,0.57
2023-02-03T10:17:58.008Z,0.60
2023-02-03T10:20:30.932Z,1.10
2023-02-03T10:22:59.872Z,0.75
2023-02-03T10:25:34.222Z,0.68
2023-02-03T10:28:03.477Z,1.20
2023-02-03T10:30:38.352Z,0.70
2023-02-03T10:33:16.239Z,0.70
2023-02-03T10:35:45.857Z,1.10
2023-02-03T10:38:15.618Z,0.68
2023-02-03T10:40:42.511Z,1.08
2023-02-03T10:43:28.812Z,0.70
2023-02-03T10:45:55.947Z,0.50
2023-02-03T10:48:23.952Z,0.55
2023-02-03T10:50:53.317Z,0.70
2023-02-03T10:53:23.379Z,0.93
2023-02-03T10:56:11.248Z,0.77
2023-02-03T10:58:39.613Z,1.00
2023-02-03T11:01:06.893Z,0.68
2023-02-03T11:03:33.805Z,1.13
2023-02-03T11:06:08.976Z,0.52
2023-02-03T11:08:38.566Z,0.60
2023-02-03T11:11:10.819Z,1.17
2023-02-03T11:13:40.299Z,1.10
2023-02-03T11:16:11.680Z,0.63
2023-02-03T11:18:54.663Z,0.57
2023-02-03T11:21:37.203Z,0.90
2023-02-03T11:24:06.765Z,0.65
2023-02-03T11:26:36.295Z,0.60
2023-02-03T11:29:04.190Z,0.57
2023-02-03T11:31:32.988Z,0.65
2023-02-03T11:34:03.670Z,0.50
2023-02-03T11:36:32.064Z,0.40
2023-02-03T11:39:14.447Z,0.40
2023-02-03T11:41:41.238Z,0.52
2023-02-03T11:44:12.740Z,0.65
2023-02-03T11:46:39.599Z,0.50
2023-02-03T11:49:14.060Z,0.70
2023-02-03T11:52:10.115Z,0.70
2023-02-03T11:54:46.857Z,0.65
2023-02-03T11:57:47.071Z,0.57
2023-02-03T12:00:50.942Z,1.02
2023-02-03T12:03:55.599Z,1.20
2023-02-03T12:06:50.380Z,0.52
2023-02-03T12:09:29.125Z,1.00
2023-02-03T12:12:26.957Z,0.68
2023-02-03T12:14:56.626Z,0.70
2023-02-03T12:17:55.714Z,0.63
2023-02-03T12:20:40.509Z,0.50
2023-02-03T12:23:25.935Z,0.85
2023-02-03T12:26:06.602Z,0.70
2023-02-03T12:28:42.571Z,0.50
2023-02-03T12:31:25.394Z,0.50
2023-02-03T12:33:55.302Z,0.77
2023-02-03T12:36:27.703Z,0.63
2023-02-03T12:39:19.711Z,0.93
2023-02-03T12:41:54.832Z,0.95
2023-02-03T12:44:32.196Z,0.82
2023-02-03T12:47:12.439Z,0.40
2023-02-03T12:50:05.667Z,0.70
2023-02-03T12:52:40.938Z,0.47
2023-02-03T12:55:32.716Z,0.63
2023-02-03T12:58:03.185Z,0.77
2023-02-03T13:00:50.305Z,0.80
2023-02-03T13:03:29.498Z,0.88
2023-02-03T13:06:15.917Z,0.52
2023-02-03T13:09:14.081Z,0.80
2023-02-03T13:11:49.348Z,0.68
2023-02-03T13:14:28.644Z,1.45
2023-02-03T13:16:58.927Z,0.75
2023-02-03T13:19:27.826Z,0.90
2023-02-03T13:21:54.685Z,0.90
2023-02-03T13:24:23.440Z,0.65
2023-02-03T13:26:56.431Z,0.70
2023-02-03T13:29:30.601Z,0.88
2023-02-03T13:32:18.580Z,0.50
2023-02-03T13:35:04.100Z,0.47
2023-02-03T13:37:43.135Z,0.68
2023-02-03T13:40:14.091Z,1.30
2023-02-03T13:43:03.278Z,0.55
2023-02-03T13:45:41.406Z,0.77
2023-02-03T13:48:10.915Z,1.00
2023-02-03T13:50:44.805Z,0.65
2023-02-03T13:53:20.681Z,0.60
2023-02-03T13:56:01.922Z,0.40
2023-02-03T13:58:31.138Z,0.50
2023-02-03T14:01:07.023Z,0.60
2023-02-03T14:03:42.941Z,0.60
2023-02-03T14:06:40.879Z,0.70
2023-02-03T14:09:23.087Z,0.57
2023-02-03T14:11:51.298Z,0.63
2023-02-03T14:14:20.712Z,0.77
2023-02-03T14:16:49.078Z,0.70
2023-02-03T14:19:22.007Z,0.60
2023-02-03T14:21:49.666Z,0.75
2023-02-03T14:24:16.448Z,0.98
2023-02-03T14:26:52.856Z,1.42
2023-02-03T14:29:32.454Z,0.88
2023-02-03T14:32:00.068Z,0.70
2023-02-03T14:34:39.789Z,0.55
2023-02-03T14:37:24.760Z,0.80
2023-02-03T14:40:18.161Z,0.60
2023-02-03T14:42:53.839Z,2.58
2023-02-03T14:45:40.850Z,1.38
2023-02-03T14:48:34.033Z,0.75
2023-02-03T14:51:22.372Z,0.68
2023-02-03T14:54:04.605Z,0.80
2023-02-03T14:56:59.950Z,0.70
2023-02-03T14:59:30.381Z,0.82
2023-02-03T15:01:57.148Z,0.80
2023-02-03T15:04:24.483Z,0.77
2023-02-03T15:06:52.279Z,0.90
2023-02-03T15:09:45.869Z,0.80
2023-02-03T15:12:19.924Z,0.68
2023-02-03T15:14:46.681Z,0.85
2023-02-03T15:17:23.492Z,1.20
2023-02-03T15:19:50.308Z,1.02
2023-02-03T15:22:23.232Z,1.20
2023-02-03T15:24:53.862Z,0.47
2023-02-03T15:27:25.368Z,0.75
2023-02-03T15:29:52.482Z,0.50
2023-02-03T15:32:29.425Z,0.50
2023-02-03T15:34:56.302Z,0.60
2023-02-03T15:37:44.534Z,0.60
2023-02-03T15:40:15.894Z,0.80
2023-02-03T15:42:46.514Z,0.60
2023-02-03T15:45:40.000Z,0.50
2023-02-03T15:48:14.608Z,0.60
2023-02-03T15:50:48.087Z,0.50
2023-02-03T15:53:21.746Z,0.45
2023-02-03T15:58:28.053Z,0.43
2023-02-03T16:00:56.563Z,0.85
2023-02-03T16:03:33.043Z,0.80
2023-02-03T16:06:30.494Z,1.90
2023-02-03T16:08:58.117Z,1.13
2023-02-03T16:11:32.846Z,1.15
2023-02-03T16:14:01.792Z,1.10
2023-02-03T16:16:30.723Z,0.82
2023-02-03T16:19:05.144Z,0.80
2023-02-03T16:21:48.045Z,0.85
2023-02-03T16:24:35.445Z,0.90
2023-02-03T16:27:26.829Z,1.02
2023-02-03T16:30:12.916Z,0.98
2023-02-03T16:32:58.461Z,0.90
2023-02-03T16:35:43.991Z,1.00
2023-02-03T16:38:35.052Z,1.08
2023-02-03T16:41:21.518Z,1.08
2023-02-03T16:44:06.666Z,1.20
2023-02-03T16:46:51.873Z,1.23
2023-02-03T16:49:37.331Z,1.02
2023-02-03T16:52:06.356Z,1.00
2023-02-03T16:54:33.151Z,1.02
2023-02-03T16:56:59.916Z,1.05
2023-02-03T16:59:26.772Z,1.25
2023-02-03T17:01:53.609Z,1.00
2023-02-03T17:04:20.377Z,1.30
2023-02-03T17:06:51.046Z,1.23
2023-02-03T17:09:23.318Z,2.05
2023-02-03T17:11:50.155Z,1.50
2023-02-03T17:14:17.035Z,1.48
2023-02-03T17:16:43.802Z,1.58
2023-02-03T17:19:11.433Z,1.65
2023-02-03T17:21:38.246Z,1.92
2023-02-03T17:24:05.545Z,1.75
2023-02-03T17:26:34.266Z,1.50
2023-02-03T17:29:03.305Z,1.27
2023-02-03T17:31:30.749Z,1.10
2023-02-03T17:33:58.338Z,1.48
2023-02-03T17:36:25.117Z,2.72
2023-02-03T17:55:25.683Z,1.92
2023-02-03T17:57:52.517Z,3.42
2023-02-03T18:00:19.616Z,3.42
2023-02-03T18:02:50.757Z,2.55
2023-02-03T18:05:18.522Z,1.52
2023-02-03T18:07:45.352Z,2.00
2023-02-03T18:10:12.408Z,1.63
2023-02-03T18:12:39.223Z,2.40
2023-02-03T18:15:06.203Z,1.50
2023-02-03T18:17:33.011Z,2.20
2023-02-03T18:20:01.284Z,2.75
2023-02-03T18:22:28.213Z,1.40
2023-02-03T18:24:55.578Z,1.75
2023-02-03T18:27:22.867Z,2.42
2023-02-03T18:29:49.700Z,2.58
2023-02-03T18:32:16.791Z,1.50
2023-02-03T18:34:43.752Z,2.53
2023-02-03T18:37:10.576Z,1.88
2023-02-03T18:39:37.456Z,2.47
2023-02-03T18:42:04.552Z,1.90
2023-02-03T18:44:31.827Z,2.30
2023-02-03T18:47:06.968Z,2.28
2023-02-03T18:49:37.804Z,1.85
2023-02-03T18:52:05.882Z,1.73
2023-02-03T18:54:32.808Z,1.50
2023-02-03T18:56:59.937Z,1.42
2023-02-03T18:59:26.929Z,1.35
2023-02-03T19:01:53.896Z,1.80
2023-02-03T19:04:20.803Z,1.60
2023-02-03T19:06:47.722Z,1.77
2023-02-03T19:09:16.968Z,1.50
2023-02-03T19:11:44.105Z,1.77
2023-02-03T19:14:12.400Z,2.70
2023-02-03T19:16:39.304Z,1.73
2023-02-03T19:19:06.064Z,3.17
2023-02-03T19:21:32.843Z,1.70
2023-02-03T19:23:59.602Z,1.90
2023-02-03T19:26:27.882Z,1.80
2023-02-03T19:28:55.817Z,2.55
2023-02-03T19:31:22.879Z,1.90
2023-02-03T19:33:49.851Z,1.40
2023-02-03T19:36:16.701Z,1.75
2023-02-03T19:38:43.510Z,1.20
2023-02-03T19:41:11.704Z,2.10
2023-02-03T19:43:39.943Z,1.45
2023-02-03T19:46:07.430Z,2.55
2023-02-03T19:48:34.317Z,1.70
2023-02-03T19:51:01.170Z,1.98
2023-02-03T19:53:27.989Z,1.80
2023-02-03T19:55:54.714Z,1.98
2023-02-03T19:58:21.559Z,1.75
2023-02-03T20:00:48.321Z,1.70
2023-02-03T20:03:17.237Z,1.75
2023-02-03T20:05:44.204Z,2.78
2023-02-03T20:08:13.013Z,1.67
2023-02-03T20:10:40.665Z,1.85
2023-02-03T20:13:07.476Z,1.70
2023-02-03T20:15:34.250Z,2.78
2023-02-03T20:18:01.082Z,2.20
2023-02-03T20:20:28.357Z,2.33
2023-02-03T20:22:55.390Z,2.50
2023-02-03T20:25:22.235Z,2.78
2023-02-03T20:27:49.085Z,2.03
2023-02-03T20:30:15.988Z,2.03
2023-02-03T20:32:42.829Z,2.28
2023-02-03T20:35:11.207Z,2.60
2023-02-03T20:37:38.011Z,2.63
2023-02-03T20:40:14.915Z,3.15
2023-02-03T20:42:41.706Z,3.67
2023-02-03T20:45:16.009Z,3.65
2023-02-03T20:47:43.058Z,3.90
2023-02-03T20:50:12.758Z,4.00
2023-02-03T20:52:39.576Z,3.67
2023-02-03T20:55:11.844Z,3.92
2023-02-03T20:57:38.825Z,3.63
2023-02-03T21:00:22.676Z,3.75
2023-02-03T21:05:42.597Z,3.30
2023-02-03T21:08:16.839Z,2.88
2023-02-03T21:10:43.946Z,3.65
2023-02-03T21:13:39.527Z,3.47
2023-02-03T21:16:13.115Z,3.38
2023-02-03T21:21:15.790Z,3.72
2023-02-03T21:23:46.932Z,3.63
2023-02-03T21:26:21.841Z,4.20
2023-02-03T21:28:58.925Z,5.10
2023-02-03T21:31:33.687Z,4.30
2023-02-03T21:34:12.522Z,4.78
2023-02-03T21:36:40.212Z,4.53
2023-02-03T21:39:26.843Z,4.63
2023-02-03T21:41:53.742Z,5.45
2023-02-03T21:44:36.472Z,5.38
2023-02-03T21:47:23.178Z,5.18
2023-02-03T21:49:51.425Z,4.60
2023-02-03T21:52:18.361Z,5.18
2023-02-03T21:54:46.001Z,5.43
2023-02-03T21:57:21.082Z,5.35
2023-02-03T21:59:49.353Z,5.60
2023-02-03T22:02:46.488Z,5.38
2023-02-03T22:05:16.598Z,5.70
2023-02-03T22:07:43.440Z,5.35
2023-02-03T22:10:10.467Z,5.47
2023-02-03T22:12:37.263Z,5.00
2023-02-03T22:15:04.181Z,5.05
2023-02-03T22:17:31.011Z,5.07
2023-02-03T22:19:58.168Z,5.35
2023-02-03T22:22:25.083Z,5.50
2023-02-03T22:24:51.867Z,6.22
2023-02-03T22:27:18.640Z,5.13
2023-02-03T22:29:45.810Z,5.65
2023-02-03T22:32:12.555Z,5.82
2023-02-03T22:34:39.329Z,6.80
2023-02-03T22:37:06.087Z,7.15
2023-02-03T22:39:32.831Z,6.30
2023-02-03T22:41:59.614Z,5.80
2023-02-03T22:44:26.432Z,6.25
2023-02-03T22:46:53.354Z,7.03
2023-02-03T22:49:20.123Z,7.05
2023-02-03T22:51:46.891Z,6.13
2023-02-03T22:54:13.631Z,5.82
2023-02-03T22:56:40.447Z,5.80
2023-02-03T22:59:07.240Z,6.43
2023-02-03T23:01:34.593Z,6.35
2023-02-03T23:04:01.417Z,5.90
2023-02-03T23:06:28.172Z,5.70
2023-02-03T23:08:55.939Z,6.10
2023-02-03T23:11:22.726Z,5.93
2023-02-03T23:13:49.574Z,5.60
2023-02-03T23:16:16.390Z,6.82
2023-02-03T23:18:43.165Z,6.22
2023-02-03T23:21:09.947Z,7.60
2023-02-03T23:23:36.697Z,6.13
2023-02-03T23:26:03.458Z,6.22
2023-02-03T23:28:30.222Z,6.60
2023-02-03T23:30:57.077Z,6.68
2023-02-03T23:33:23.909Z,6.47
2023-02-03T23:35:50.730Z,6.40
2023-02-03T23:38:17.671Z,6.75
2023-02-03T23:40:44.502Z,5.80
2023-02-03T23:43:11.377Z,6.40
2023-02-03T23:45:38.188Z,6.22
2023-02-03T23:48:05.380Z,6.30
2023-02-03T23:50:32.640Z,6.03
2023-02-03T23:52:59.615Z,6.55
2023-02-03T23:55:26.490Z,7.60
2023-02-03T23:57:53.321Z,6.43
